createdAt,value
2017-12-09T00:01:55.495Z,0.97
2017-12-09T00:04:26.944Z,0.83
2017-12-09T00:06:58.727Z,0.78
2017-12-09T00:09:29.541Z,0.97
2017-12-09T00:12:04.702Z,0.81
2017-12-09T00:14:36.360Z,0.86
2017-12-09T00:17:09.355Z,0.83
2017-12-09T00:19:40.849Z,0.90
2017-12-09T00:22:12.651Z,0.98
2017-12-09T00:24:44.556Z,0.90
2017-12-09T00:27:15.862Z,0.86
2017-12-09T00:29:50.020Z,0.98
2017-12-09T00:32:22.226Z,0.91
2017-12-09T00:34:56.226Z,0.92
2017-12-09T00:37:31.712Z,1.01
2017-12-09T00:40:02.916Z,0.95
2017-12-09T00:42:35.061Z,0.98
2017-12-09T00:45:08.589Z,0.88
2017-12-09T00:47:44.388Z,0.89
2017-12-09T00:50:15.587Z,0.94
2017-12-09T00:52:46.837Z,0.91
2017-12-09T00:55:17.868Z,0.91
2017-12-09T00:57:50.500Z,0.86
2017-12-09T01:00:22.405Z,0.75
2017-12-09T01:02:53.880Z,0.79
2017-12-09T01:05:25.832Z,0.70
2017-12-09T01:07:56.978Z,0.79
2017-12-09T01:10:28.007Z,0.84
2017-12-09T01:12:59.650Z,0.91
2017-12-09T01:15:39.362Z,0.87
2017-12-09T01:18:20.457Z,0.76
2017-12-09T01:20:51.933Z,0.87
2017-12-09T01:23:23.163Z,0.83
2017-12-09T01:25:55.843Z,0.87
2017-12-09T01:28:27.776Z,0.98
2017-12-09T01:30:59.927Z,0.95
2017-12-09T01:33:31.328Z,0.97
2017-12-09T01:36:02.054Z,1.02
2017-12-09T01:38:32.972Z,1.05
2017-12-09T01:41:04.271Z,1.13
2017-12-09T01:43:35.398Z,1.14
2017-12-09T01:46:06.521Z,1.28
2017-12-09T01:48:38.071Z,1.14
2017-12-09T01:51:09.180Z,1.21
2017-12-09T01:53:40.300Z,1.21
2017-12-09T01:56:11.362Z,1.14
2017-12-09T01:58:42.667Z,1.16
2017-12-09T02:01:14.551Z,1.17
2017-12-09T02:03:45.554Z,1.20
2017-12-09T02:06:17.115Z,1.12
2017-12-09T02:08:48.035Z,1.18
2017-12-09T02:11:18.904Z,1.17
2017-12-09T02:13:50.305Z,1.13
2017-12-09T02:16:21.587Z,1.16
2017-12-09T02:18:55.189Z,1.09
2017-12-09T02:21:27.167Z,1.16
2017-12-09T02:23:58.412Z,1.13
2017-12-09T02:26:29.427Z,1.07
2017-12-09T02:29:00.436Z,1.16
2017-12-09T02:31:31.662Z,1.10
2017-12-09T02:34:03.491Z,1.06
2017-12-09T02:36:34.821Z,1.09
2017-12-09T02:39:06.287Z,1.16
2017-12-09T02:41:37.870Z,1.14
2017-12-09T02:44:09.938Z,1.12
2017-12-09T02:46:41.804Z,1.17
2017-12-09T02:49:13.013Z,1.02
2017-12-09T02:51:44.293Z,1.04
2017-12-09T02:54:17.297Z,0.99
2017-12-09T02:56:50.036Z,1.09
2017-12-09T02:59:21.137Z,1.19
2017-12-09T03:01:52.206Z,1.07
2017-12-09T03:04:24.241Z,1.11
2017-12-09T03:06:55.204Z,1.13
2017-12-09T03:09:27.104Z,1.16
2017-12-09T03:11:58.165Z,1.05
2017-12-09T03:14:29.702Z,1.12
2017-12-09T03:17:03.283Z,1.18
2017-12-09T03:19:34.622Z,1.10
2017-12-09T03:22:09.448Z,1.21
2017-12-09T03:24:40.682Z,1.28
2017-12-09T03:27:11.536Z,1.24
2017-12-09T03:29:42.916Z,1.17
2017-12-09T03:32:13.877Z,1.21
2017-12-09T03:34:44.766Z,1.33
2017-12-09T03:37:15.714Z,1.06
2017-12-09T03:39:46.972Z,1.10
2017-12-09T03:42:18.905Z,1.02
2017-12-09T03:44:50.360Z,0.95
2017-12-09T03:47:22.574Z,1.02
2017-12-09T03:49:54.791Z,0.81
2017-12-09T03:52:25.924Z,1.11
2017-12-09T03:54:57.807Z,1.16
2017-12-09T03:57:28.719Z,1.17
2017-12-09T03:59:59.855Z,1.31
2017-12-09T04:02:30.764Z,1.36
2017-12-09T04:05:03.791Z,1.28
2017-12-09T04:07:34.855Z,1.35
2017-12-09T04:10:16.763Z,1.32
2017-12-09T04:12:48.970Z,1.38
2017-12-09T04:15:20.727Z,1.42
2017-12-09T04:17:51.783Z,1.41
2017-12-09T04:20:25.364Z,1.43
2017-12-09T04:22:56.576Z,1.48
2017-12-09T04:25:27.577Z,1.57
2017-12-09T04:27:58.876Z,1.46
2017-12-09T04:30:30.328Z,1.44
2017-12-09T04:33:01.462Z,1.50
2017-12-09T04:35:32.818Z,1.40
2017-12-09T04:38:06.669Z,1.40
2017-12-09T04:40:39.979Z,1.36
2017-12-09T04:43:11.652Z,1.45
2017-12-09T04:45:44.094Z,1.51
2017-12-09T04:48:16.944Z,1.48
2017-12-09T04:50:49.661Z,1.47
2017-12-09T04:53:21.932Z,1.50
2017-12-09T04:55:53.891Z,1.46
2017-12-09T04:58:29.039Z,1.36
2017-12-09T05:01:00.232Z,1.47
2017-12-09T05:03:33.616Z,1.47
2017-12-09T05:06:05.440Z,1.45
2017-12-09T05:08:36.386Z,1.50
2017-12-09T05:11:09.351Z,1.54
2017-12-09T05:13:40.248Z,1.53
2017-12-09T05:16:11.920Z,1.69
2017-12-09T05:18:46.546Z,1.54
2017-12-09T05:21:19.427Z,1.63
2017-12-09T05:23:54.553Z,1.66
2017-12-09T05:26:27.637Z,1.58
2017-12-09T05:29:02.989Z,1.62
2017-12-09T05:31:37.512Z,1.56
2017-12-09T05:34:08.803Z,1.53
2017-12-09T05:36:40.379Z,1.51
2017-12-09T05:39:11.549Z,1.61
2017-12-09T05:41:42.846Z,1.66
2017-12-09T05:44:14.561Z,1.53
2017-12-09T05:46:48.466Z,1.72
2017-12-09T05:49:20.015Z,1.50
2017-12-09T05:51:51.671Z,1.64
2017-12-09T05:54:25.644Z,1.65
2017-12-09T05:56:56.840Z,1.48
2017-12-09T05:59:28.782Z,1.50
2017-12-09T06:02:00.096Z,1.61
2017-12-09T06:04:32.355Z,1.49
2017-12-09T06:07:03.633Z,1.52
2017-12-09T06:09:35.789Z,1.57
2017-12-09T06:13:11.469Z,1.56
2017-12-09T06:15:44.490Z,1.60
2017-12-09T06:18:19.063Z,1.44
2017-12-09T06:20:52.213Z,1.55
2017-12-09T06:23:24.463Z,1.63
2017-12-09T06:25:56.316Z,1.51
2017-12-09T06:28:28.873Z,1.53
2017-12-09T06:31:01.464Z,1.45
2017-12-09T06:33:35.757Z,1.54
2017-12-09T06:36:08.499Z,1.56
2017-12-09T06:38:40.933Z,1.62
2017-12-09T06:41:13.458Z,1.52
2017-12-09T06:43:46.408Z,1.55
2017-12-09T06:46:17.471Z,1.58
2017-12-09T06:48:49.982Z,1.45
2017-12-09T06:51:21.218Z,1.47
2017-12-09T06:53:54.004Z,1.48
2017-12-09T06:56:29.587Z,1.29
2017-12-09T06:59:01.281Z,1.41
2017-12-09T07:01:32.790Z,1.34
2017-12-09T07:04:06.986Z,1.35
2017-12-09T07:06:38.958Z,1.51
2017-12-09T07:09:10.960Z,1.28
2017-12-09T07:11:41.999Z,1.47
2017-12-09T07:14:15.368Z,1.31
2017-12-09T07:16:49.263Z,1.44
2017-12-09T07:19:20.722Z,1.43
2017-12-09T07:21:52.141Z,1.35
2017-12-09T07:24:23.769Z,1.41
2017-12-09T07:26:55.072Z,1.43
2017-12-09T07:29:26.427Z,1.42
2017-12-09T07:32:00.669Z,1.45
2017-12-09T07:34:32.154Z,1.40
2017-12-09T07:37:03.600Z,1.55
2017-12-09T07:39:38.011Z,1.53
2017-12-09T07:42:10.827Z,1.46
2017-12-09T07:44:42.849Z,1.52
2017-12-09T07:47:14.082Z,1.54
2017-12-09T07:49:45.639Z,1.43
2017-12-09T07:52:17.507Z,1.41
2017-12-09T07:54:48.700Z,1.52
2017-12-09T07:57:21.691Z,1.42
2017-12-09T07:59:54.296Z,1.42
2017-12-09T08:02:26.286Z,1.47
2017-12-09T08:04:59.887Z,1.45
2017-12-09T08:07:33.729Z,1.60
2017-12-09T08:10:06.060Z,1.56
2017-12-09T08:12:41.876Z,1.52
2017-12-09T08:15:14.246Z,1.47
2017-12-09T08:17:46.360Z,1.53
2017-12-09T08:20:26.594Z,1.53
2017-12-09T08:23:01.456Z,1.54
2017-12-09T08:25:33.288Z,1.58
2017-12-09T08:28:08.817Z,1.49
2017-12-09T08:30:42.183Z,1.51
2017-12-09T08:33:19.316Z,1.56
2017-12-09T08:36:07.559Z,1.56
2017-12-09T08:38:41.210Z,1.59
2017-12-09T08:41:13.154Z,1.58
2017-12-09T08:43:46.801Z,1.60
2017-12-09T08:46:17.869Z,1.62
2017-12-09T08:48:49.877Z,1.67
2017-12-09T08:51:29.472Z,1.71
2017-12-09T08:54:05.070Z,1.62
2017-12-09T08:56:36.206Z,1.64
2017-12-09T08:59:07.477Z,1.71
2017-12-09T09:01:38.969Z,1.85
2017-12-09T09:04:21.380Z,1.68
2017-12-09T09:06:57.005Z,1.57
2017-12-09T09:09:35.549Z,1.72
2017-12-09T09:12:08.338Z,1.65
2017-12-09T09:14:40.195Z,1.59
2017-12-09T09:17:11.991Z,1.56
2017-12-09T09:19:50.174Z,1.81
2017-12-09T09:22:22.534Z,1.75
2017-12-09T09:24:53.733Z,1.58
2017-12-09T09:27:26.299Z,1.50
2017-12-09T09:29:59.005Z,1.59
2017-12-09T09:32:32.639Z,1.30
2017-12-09T09:37:41.559Z,1.47
2017-12-09T09:40:17.391Z,1.45
2017-12-09T09:42:52.286Z,1.43
2017-12-09T09:45:25.085Z,1.36
2017-12-09T09:47:56.724Z,1.52
2017-12-09T09:50:29.047Z,1.49
2017-12-09T09:53:01.143Z,1.52
2017-12-09T09:55:34.552Z,1.42
2017-12-09T09:58:09.193Z,1.36
2017-12-09T10:00:43.968Z,1.45
2017-12-09T10:03:15.534Z,1.47
2017-12-09T10:05:47.718Z,1.46
2017-12-09T10:08:18.910Z,1.40
2017-12-09T10:10:50.754Z,1.42
2017-12-09T10:13:22.096Z,1.51
2017-12-09T10:15:53.363Z,1.39
2017-12-09T10:18:24.897Z,1.45
2017-12-09T10:20:55.985Z,1.55
2017-12-09T10:23:27.553Z,1.56
2017-12-09T10:25:59.171Z,1.37
2017-12-09T10:28:32.214Z,1.43
2017-12-09T10:31:03.171Z,1.52
2017-12-09T10:33:35.256Z,1.61
2017-12-09T10:36:06.489Z,1.52
2017-12-09T10:38:38.037Z,1.46
2017-12-09T10:41:09.648Z,1.49
2017-12-09T10:43:41.012Z,1.60
2017-12-09T10:46:13.193Z,1.41
2017-12-09T10:48:45.987Z,1.45
2017-12-09T10:51:20.256Z,1.53
2017-12-09T10:53:53.494Z,1.59
2017-12-09T10:56:25.501Z,1.62
2017-12-09T10:58:57.167Z,1.39
2017-12-09T11:01:28.521Z,1.42
2017-12-09T11:04:00.276Z,1.38
2017-12-09T11:06:31.756Z,1.21
2017-12-09T11:09:02.964Z,1.39
2017-12-09T11:11:34.464Z,1.25
2017-12-09T11:14:05.825Z,1.26
2017-12-09T11:16:37.295Z,1.37
2017-12-09T11:19:11.744Z,1.47
2017-12-09T11:21:42.975Z,1.35
2017-12-09T11:24:15.509Z,1.37
2017-12-09T11:26:46.607Z,1.44
2017-12-09T11:29:17.791Z,1.39
2017-12-09T11:31:49.205Z,1.33
2017-12-09T11:34:20.309Z,1.45
2017-12-09T11:36:52.726Z,1.43
2017-12-09T11:39:26.372Z,1.46
2017-12-09T11:41:58.744Z,1.35
2017-12-09T11:44:30.102Z,1.47
2017-12-09T11:47:01.679Z,1.49
2017-12-09T11:49:33.731Z,1.44
2017-12-09T11:52:05.184Z,1.36
2017-12-09T11:54:36.146Z,1.48
2017-12-09T11:57:08.571Z,1.44
2017-12-09T11:59:40.181Z,1.46
2017-12-09T12:02:11.341Z,1.42
2017-12-09T12:04:42.543Z,1.43
2017-12-09T12:07:13.835Z,1.47
2017-12-09T12:09:45.690Z,1.45
2017-12-09T12:12:16.762Z,1.41
2017-12-09T12:14:48.249Z,1.38
2017-12-09T12:17:19.377Z,1.55
2017-12-09T12:19:50.856Z,1.41
2017-12-09T12:22:22.743Z,1.34
2017-12-09T12:24:54.013Z,1.42
2017-12-09T12:27:25.546Z,1.48
2017-12-09T12:29:57.022Z,1.49
2017-12-09T12:32:28.544Z,1.58
2017-12-09T12:35:00.646Z,1.55
2017-12-09T12:37:33.648Z,1.65
2017-12-09T12:40:08.290Z,1.59
2017-12-09T12:42:39.646Z,1.63
2017-12-09T12:45:14.175Z,1.73
2017-12-09T12:47:45.937Z,1.57
2017-12-09T12:50:17.571Z,1.58
2017-12-09T12:52:49.785Z,1.59
2017-12-09T12:55:22.444Z,1.69
2017-12-09T12:57:56.902Z,1.68
2017-12-09T13:00:29.116Z,1.65
2017-12-09T13:03:03.184Z,1.70
2017-12-09T13:05:35.283Z,1.58
2017-12-09T13:08:07.044Z,1.68
2017-12-09T13:10:38.866Z,1.65
2017-12-09T13:13:10.045Z,1.77
2017-12-09T13:15:41.239Z,1.69
2017-12-09T13:18:12.438Z,1.70
2017-12-09T13:20:43.807Z,1.85
2017-12-09T13:23:15.343Z,1.77
2017-12-09T13:25:47.782Z,1.77
2017-12-09T13:28:19.778Z,1.71
2017-12-09T13:30:51.609Z,1.83
2017-12-09T13:33:23.672Z,1.55
2017-12-09T13:35:55.770Z,1.67
2017-12-09T13:38:26.865Z,1.76
2017-12-09T13:40:58.744Z,1.73
2017-12-09T13:43:30.014Z,1.72
2017-12-09T13:46:02.128Z,1.69
2017-12-09T13:48:34.398Z,1.73
2017-12-09T13:51:06.250Z,1.67
2017-12-09T13:53:37.486Z,1.70
2017-12-09T13:56:08.420Z,1.74
2017-12-09T13:58:39.345Z,1.69
2017-12-09T14:01:11.705Z,1.66
2017-12-09T14:03:43.397Z,1.60
2017-12-09T14:06:14.316Z,1.67
2017-12-09T14:08:45.619Z,1.74
2017-12-09T14:11:17.783Z,1.66
2017-12-09T14:13:49.925Z,1.65
2017-12-09T14:16:22.623Z,1.74
2017-12-09T14:18:54.107Z,1.60
2017-12-09T14:21:32.009Z,1.65
2017-12-09T14:24:07.673Z,1.67
2017-12-09T14:26:41.367Z,1.63
2017-12-09T14:29:17.268Z,1.69
2017-12-09T14:31:51.792Z,1.72
2017-12-09T14:34:23.699Z,1.60
2017-12-09T14:36:57.705Z,1.67
2017-12-09T14:39:29.834Z,1.62
2017-12-09T14:42:02.124Z,1.61
2017-12-09T14:44:35.252Z,1.46
2017-12-09T14:47:06.726Z,1.44
2017-12-09T14:49:38.653Z,1.41
2017-12-09T14:52:11.136Z,1.42
2017-12-09T14:54:42.519Z,1.51
2017-12-09T14:57:14.267Z,1.46
2017-12-09T14:59:45.322Z,1.52
2017-12-09T15:02:17.097Z,1.45
2017-12-09T15:04:48.080Z,1.43
2017-12-09T15:07:19.344Z,1.54
2017-12-09T15:09:50.638Z,1.51
2017-12-09T15:12:21.885Z,1.57
2017-12-09T15:14:53.047Z,1.49
2017-12-09T15:17:24.033Z,1.50
2017-12-09T15:19:55.013Z,1.41
2017-12-09T15:22:26.293Z,1.38
2017-12-09T15:24:57.139Z,1.41
2017-12-09T15:27:28.002Z,1.47
2017-12-09T15:29:59.165Z,1.42
2017-12-09T15:32:30.268Z,1.41
2017-12-09T15:35:01.457Z,1.37
2017-12-09T15:37:33.149Z,1.42
2017-12-09T15:40:06.020Z,1.44
2017-12-09T15:42:39.262Z,1.55
2017-12-09T15:45:12.165Z,1.37
2017-12-09T15:47:43.425Z,1.38
2017-12-09T15:50:15.504Z,1.39
2017-12-09T15:52:46.445Z,1.35
2017-12-09T15:55:17.830Z,1.33
2017-12-09T15:57:48.874Z,1.42
2017-12-09T16:00:20.790Z,1.32
2017-12-09T16:02:54.176Z,1.30
2017-12-09T16:05:25.489Z,1.36
2017-12-09T16:07:56.710Z,1.30
2017-12-09T16:10:29.618Z,1.35
2017-12-09T16:13:01.296Z,1.37
2017-12-09T16:15:32.914Z,1.48
2017-12-09T16:18:06.353Z,1.43
2017-12-09T16:20:39.863Z,1.36
2017-12-09T16:23:13.363Z,1.45
2017-12-09T16:25:44.669Z,1.41
2017-12-09T16:28:17.184Z,1.48
2017-12-09T16:30:50.204Z,1.36
2017-12-09T16:33:24.698Z,1.40
2017-12-09T16:35:58.713Z,1.35
2017-12-09T16:38:30.834Z,1.25
2017-12-09T16:41:02.212Z,1.40
2017-12-09T16:43:34.166Z,1.40
2017-12-09T16:46:06.096Z,1.36
2017-12-09T16:48:37.947Z,1.41
2017-12-09T16:51:10.809Z,1.54
2017-12-09T16:53:43.148Z,1.47
2017-12-09T16:56:14.681Z,1.42
2017-12-09T16:58:46.574Z,1.28
2017-12-09T17:03:57.927Z,1.36
2017-12-09T17:06:36.701Z,1.38
2017-12-09T17:09:13.807Z,1.29
2017-12-09T17:11:46.390Z,1.42
2017-12-09T17:14:19.807Z,1.35
2017-12-09T17:16:51.483Z,1.43
2017-12-09T17:19:24.281Z,1.36
2017-12-09T17:21:56.781Z,1.21
2017-12-09T17:24:29.744Z,1.32
2017-12-09T17:27:01.046Z,1.28
2017-12-09T17:29:32.420Z,1.30
2017-12-09T17:32:03.653Z,1.28
2017-12-09T17:34:35.713Z,1.18
2017-12-09T17:37:07.984Z,1.31
2017-12-09T17:39:39.379Z,1.16
2017-12-09T17:47:33.101Z,1.22
2017-12-09T17:50:39.898Z,1.24
2017-12-09T17:53:11.871Z,1.21
2017-12-09T17:55:44.028Z,1.37
2017-12-09T17:58:16.017Z,1.31
2017-12-09T18:00:50.282Z,1.48
2017-12-09T18:03:21.487Z,1.37
2017-12-09T18:05:53.221Z,1.51
2017-12-09T18:08:24.841Z,1.42
2017-12-09T18:10:56.884Z,1.41
2017-12-09T18:13:28.657Z,1.41
2017-12-09T18:16:01.041Z,1.47
2017-12-09T18:18:33.670Z,1.48
2017-12-09T18:21:05.682Z,1.58
2017-12-09T18:23:38.754Z,1.48
2017-12-09T18:26:12.590Z,1.67
2017-12-09T18:28:44.423Z,1.54
2017-12-09T18:31:16.146Z,1.61
2017-12-09T18:33:47.784Z,1.71
2017-12-09T18:36:19.930Z,1.62
2017-12-09T18:38:56.831Z,1.62
2017-12-09T18:44:04.607Z,1.64
2017-12-09T18:46:36.237Z,1.71
2017-12-09T18:49:09.529Z,1.56
2017-12-09T18:51:42.003Z,1.66
2017-12-09T18:54:14.765Z,1.62
2017-12-09T18:56:48.398Z,1.55
2017-12-09T18:59:22.429Z,1.70
2017-12-09T19:01:59.037Z,1.70
2017-12-09T19:04:35.953Z,1.72
2017-12-09T19:07:11.965Z,1.85
2017-12-09T19:09:46.968Z,1.93
2017-12-09T19:12:18.613Z,1.54
2017-12-09T19:14:50.759Z,1.65
2017-12-09T19:17:22.325Z,1.84
2017-12-09T19:19:55.079Z,1.86
2017-12-09T19:22:26.083Z,1.72
2017-12-09T19:24:57.074Z,2.08
2017-12-09T19:27:29.049Z,1.84
2017-12-09T19:30:00.251Z,1.88
2017-12-09T19:32:31.320Z,1.80
2017-12-09T19:35:02.576Z,1.57
2017-12-09T19:37:34.068Z,1.68
2017-12-09T19:40:06.974Z,1.67
2017-12-09T19:42:42.429Z,1.59
2017-12-09T19:45:14.645Z,1.55
2017-12-09T19:47:46.284Z,1.66
2017-12-09T19:50:18.433Z,1.64
2017-12-09T19:52:51.059Z,1.47
2017-12-09T19:55:23.592Z,1.45
2017-12-09T19:57:55.685Z,1.36
2017-12-09T20:00:28.960Z,1.38
2017-12-09T20:03:00.489Z,1.33
2017-12-09T20:05:34.713Z,1.21
2017-12-09T20:08:07.901Z,1.23
2017-12-09T20:10:39.104Z,1.29
2017-12-09T20:13:10.238Z,1.17
2017-12-09T20:15:43.010Z,1.10
2017-12-09T20:18:14.111Z,1.23
2017-12-09T20:20:45.454Z,1.23
2017-12-09T20:23:17.281Z,1.24
2017-12-09T20:25:48.780Z,1.12
2017-12-09T20:28:20.305Z,1.21
2017-12-09T20:30:52.599Z,1.35
2017-12-09T20:36:03.398Z,1.23
2017-12-09T20:38:34.658Z,1.16
2017-12-09T20:41:06.532Z,1.37
2017-12-09T20:43:37.884Z,1.21
2017-12-09T20:46:09.369Z,1.11
2017-12-09T20:48:41.782Z,1.20
2017-12-09T20:51:13.054Z,1.31
2017-12-09T20:53:44.527Z,1.27
2017-12-09T20:56:16.406Z,1.23
2017-12-09T20:58:47.744Z,1.39
2017-12-09T21:01:19.709Z,1.37
2017-12-09T21:03:51.052Z,1.36
2017-12-09T21:06:23.165Z,1.27
2017-12-09T21:08:54.202Z,1.30
2017-12-09T21:11:25.599Z,1.15
2017-12-09T21:13:56.963Z,1.24
2017-12-09T21:16:32.039Z,1.22
2017-12-09T21:19:03.432Z,1.23
2017-12-09T21:21:36.648Z,1.29
2017-12-09T21:24:08.957Z,1.13
2017-12-09T21:26:40.348Z,1.12
2017-12-09T21:29:11.733Z,1.11
2017-12-09T21:31:43.873Z,1.19
2017-12-09T21:34:16.995Z,1.10
2017-12-09T21:36:48.307Z,1.04
2017-12-09T21:39:19.608Z,1.01
2017-12-09T21:41:51.245Z,0.93
2017-12-09T21:44:22.580Z,0.85
2017-12-09T21:46:55.070Z,0.91
2017-12-09T21:49:26.327Z,0.88
2017-12-09T21:51:58.063Z,0.84
2017-12-09T21:54:29.481Z,0.90
2017-12-09T21:57:01.627Z,0.86
2017-12-09T21:59:32.850Z,0.86
2017-12-09T22:02:04.946Z,0.84
2017-12-09T22:04:36.215Z,0.76
2017-12-09T22:07:07.668Z,0.80
2017-12-09T22:09:40.082Z,0.76
2017-12-09T22:12:11.045Z,0.69
2017-12-09T22:14:42.422Z,0.72
2017-12-09T22:17:13.347Z,0.68
2017-12-09T22:19:45.932Z,0.59
2017-12-09T22:22:17.843Z,0.65
2017-12-09T22:24:49.360Z,0.50
2017-12-09T22:27:20.799Z,0.55
2017-12-09T22:29:53.186Z,0.63
2017-12-09T22:32:25.199Z,0.57
2017-12-09T22:34:57.146Z,0.54
2017-12-09T22:37:29.104Z,0.46
2017-12-09T22:40:00.089Z,0.51
2017-12-09T22:42:31.878Z,0.55
2017-12-09T22:45:05.219Z,0.47
2017-12-09T22:47:38.129Z,0.46
2017-12-09T22:50:13.868Z,0.49
2017-12-09T22:52:48.948Z,0.50
2017-12-09T22:55:23.073Z,0.42
2017-12-09T22:57:55.772Z,0.36
2017-12-09T23:00:30.079Z,0.49
2017-12-09T23:03:03.601Z,0.33
2017-12-09T23:05:41.274Z,0.41
2017-12-09T23:08:14.165Z,0.45
2017-12-09T23:10:48.404Z,0.48
2017-12-09T23:13:20.060Z,0.31
2017-12-09T23:15:52.886Z,0.38
2017-12-09T23:18:24.065Z,0.23
2017-12-09T23:20:55.600Z,0.27
2017-12-09T23:23:27.365Z,0.28
2017-12-09T23:26:02.905Z,0.31
2017-12-09T23:28:36.305Z,0.26
2017-12-09T23:31:08.009Z,0.29
2017-12-09T23:33:39.657Z,0.30
2017-12-09T23:36:13.488Z,0.41
2017-12-09T23:38:45.171Z,0.27
2017-12-09T23:41:16.891Z,0.34
2017-12-09T23:43:50.490Z,0.19
2017-12-09T23:46:21.441Z,0.23
2017-12-09T23:48:56.558Z,0.22
2017-12-09T23:51:31.108Z,0.37
2017-12-09T23:54:02.935Z,0.26
2017-12-09T23:56:36.040Z,0.15
2017-12-09T23:59:10.200Z,0.22
